Time;durP1;ratioP1;P1;durP2;ratioP2;P2;SDS_P1;SDS_P2;PMS_P1;PMS_P2;Temp;Humidity;BMP_temperature;BMP_pressure;BME280_temperature;BME280_humidity;BME280_pressure;Samples;Min_cycle;Max_cycle;Signal;HPM_P1;HPM_P2
2022/08/08 00:00:48;;;;;;;6.60;4.70;;;13.00;99.90;;;;;;5029163;28;20032;-58
2022/08/08 00:03:32;;;;;;;5.53;4.50;;;12.90;99.90;;;;;;5026797;28;20049;-58
2022/08/08 00:06:36;;;;;;;4.53;4.13;;;12.90;99.90;;;;;;5011244;28;20025;-55
2022/08/08 00:09:16;;;;;;;5.60;4.30;;;12.90;99.90;;;;;;5000772;28;20026;-59
2022/08/08 00:11:45;;;;;;;6.03;4.78;;;13.00;99.90;;;;;;5027666;28;20573;-62
2022/08/08 00:14:51;;;;;;;4.82;4.18;;;12.90;99.90;;;;;;5028853;28;20116;-57
2022/08/08 00:17:35;;;;;;;4.97;4.50;;;12.90;99.90;;;;;;5021372;28;20041;-57
2022/08/08 00:20:07;;;;;;;5.18;4.57;;;13.00;99.90;;;;;;5028214;28;20041;-57
2022/08/08 00:22:44;;;;;;;5.47;4.85;;;13.00;99.90;;;;;;5028081;28;20495;-61
2022/08/08 00:25:18;;;;;;;4.53;4.13;;;12.90;99.90;;;;;;5025969;28;20121;-57
2022/08/08 00:27:46;;;;;;;4.45;4.05;;;13.00;99.90;;;;;;5028393;28;20113;-58
2022/08/08 00:30:12;;;;;;;4.18;3.78;;;13.00;99.90;;;;;;5027498;28;20120;-59
2022/08/08 00:33:16;;;;;;;4.00;3.70;;;13.00;99.90;;;;;;5028006;28;20079;-61
2022/08/08 00:36:05;;;;;;;4.93;4.22;;;12.90;99.90;;;;;;5012475;28;20045;-57
2022/08/08 00:38:30;;;;;;;4.88;4.07;;;12.90;99.90;;;;;;5016633;28;20026;-60
2022/08/08 00:41:14;;;;;;;4.50;4.00;;;12.90;99.90;;;;;;5027322;28;20376;-63
2022/08/08 00:44:07;;;;;;;3.47;3.17;;;12.80;99.90;;;;;;5009580;28;20060;-60
2022/08/08 00:46:57;;;;;;;4.30;3.90;;;12.80;99.90;;;;;;5023149;28;20049;-59
2022/08/08 00:49:41;;;;;;;5.68;3.78;;;12.80;99.90;;;;;;5027406;28;20033;-61
2022/08/08 00:52:22;;;;;;;5.30;3.92;;;12.80;99.90;;;;;;5022673;28;20448;-60
2022/08/08 00:55:18;;;;;;;4.78;3.95;;;12.80;99.90;;;;;;5027951;28;20032;-58
2022/08/08 00:58:25;;;;;;;7.20;4.15;;;12.70;99.90;;;;;;5018168;28;20030;-60
2022/08/08 01:00:57;;;;;;;4.40;3.75;;;12.70;99.90;;;;;;5022535;28;20029;-60
2022/08/08 01:03:28;;;;;;;4.95;3.97;;;12.60;99.90;;;;;;5025324;28;20033;-60
2022/08/08 01:06:34;;;;;;;4.78;4.10;;;12.70;99.90;;;;;;5018954;28;20027;-60
2022/08/08 01:09:06;;;;;;;5.28;4.38;;;12.60;99.90;;;;;;5023828;28;20048;-60
2022/08/08 01:12:02;;;;;;;4.70;4.20;;;12.60;99.90;;;;;;5025451;28;20030;-61
2022/08/08 01:15:05;;;;;;;5.97;4.45;;;12.50;99.90;;;;;;5021889;28;20029;-61
2022/08/08 01:18:08;;;;;;;4.80;4.40;;;12.60;99.90;;;;;;5027260;28;20030;-59
2022/08/08 01:20:46;;;;;;;4.10;3.80;;;12.50;99.90;;;;;;5006352;28;20025;-59
2022/08/08 01:23:33;;;;;;;4.20;3.80;;;12.50;99.90;;;;;;5026803;28;20037;-60
2022/08/08 01:26:17;;;;;;;6.18;4.88;;;12.40;99.90;;;;;;5027072;28;20125;-59
2022/08/08 01:29:20;;;;;;;4.57;4.15;;;12.40;99.90;;;;;;5028026;28;20104;-61
2022/08/08 01:32:07;;;;;;;6.35;3.97;;;12.40;99.90;;;;;;5026566;28;20065;-59
2022/08/08 01:35:06;;;;;;;4.65;4.25;;;12.40;99.90;;;;;;5025227;28;20033;-62
2022/08/08 01:38:00;;;;;;;4.93;4.38;;;12.40;99.90;;;;;;5021203;28;20029;-61
2022/08/08 01:40:26;;;;;;;5.68;4.63;;;12.40;99.90;;;;;;5024964;28;20026;-62
2022/08/08 01:43:26;;;;;;;4.38;3.97;;;12.40;99.90;;;;;;5022248;28;20427;-59
2022/08/08 01:46:24;;;;;;;4.75;3.85;;;12.30;99.90;;;;;;5012500;28;20098;-63
2022/08/08 01:49:07;;;;;;;4.63;4.22;;;12.30;99.90;;;;;;5025015;28;20125;-58
2022/08/08 01:51:57;;;;;;;5.85;4.32;;;12.30;99.90;;;;;;5026081;28;20029;-63
2022/08/08 01:54:51;;;;;;;5.22;4.72;;;12.30;99.90;;;;;;5023135;28;20021;-64
2022/08/08 01:57:31;;;;;;;4.38;3.97;;;12.30;99.90;;;;;;5018837;28;20030;-63
2022/08/08 02:00:20;;;;;;;4.75;4.20;;;12.40;99.90;;;;;;5025371;28;20022;-63
2022/08/08 02:03:04;;;;;;;4.70;4.07;;;12.40;99.90;;;;;;5026179;28;20082;-64
2022/08/08 02:05:52;;;;;;;6.18;4.45;;;12.40;99.90;;;;;;5018563;28;20060;-63
2022/08/08 02:08:34;;;;;;;5.82;4.38;;;12.40;99.90;;;;;;5006397;28;20504;-59
2022/08/08 02:11:38;;;;;;;4.40;4.00;;;12.40;99.90;;;;;;5026157;28;20022;-61
2022/08/08 02:14:34;;;;;;;5.18;3.92;;;12.30;99.90;;;;;;5021532;28;20038;-62
2022/08/08 02:17:11;;;;;;;4.93;3.58;;;12.30;99.90;;;;;;5029768;28;20022;-62
2022/08/08 02:19:55;;;;;;;5.35;4.10;;;12.30;99.90;;;;;;5027674;28;20037;-61
2022/08/08 02:22:38;;;;;;;4.85;4.35;;;12.20;99.90;;;;;;5023520;28;20205;-62
2022/08/08 02:25:19;;;;;;;4.97;4.13;;;12.20;99.90;;;;;;5030696;28;20145;-60
2022/08/08 02:27:58;;;;;;;5.15;4.50;;;12.10;99.90;;;;;;5030874;28;20069;-61
2022/08/08 02:30:40;;;;;;;4.70;4.20;;;12.10;99.90;;;;;;5026207;28;20048;-62
2022/08/08 02:33:28;;;;;;;5.57;4.30;;;12.10;99.90;;;;;;5027165;28;20029;-60
2022/08/08 02:35:59;;;;;;;4.53;4.10;;;12.10;99.90;;;;;;5030894;28;20031;-61
2022/08/08 02:38:42;;;;;;;5.30;4.00;;;12.10;99.90;;;;;;5025796;28;20026;-59
2022/08/08 02:41:17;;;;;;;4.63;3.80;;;12.10;99.90;;;;;;5025181;28;20037;-65
2022/08/08 02:44:00;;;;;;;4.10;3.70;;;12.00;99.90;;;;;;5030999;28;20040;-62
2022/08/08 02:46:45;;;;;;;4.90;3.85;;;12.00;99.90;;;;;;5026789;28;20064;-61
2022/08/08 02:49:30;;;;;;;6.05;4.20;;;12.00;99.90;;;;;;5030624;28;20045;-60
2022/08/08 02:52:21;;;;;;;4.60;3.78;;;12.00;99.90;;;;;;5025924;28;20037;-61
2022/08/08 02:55:24;;;;;;;6.15;3.75;;;12.00;99.90;;;;;;5002624;28;20052;-63
2022/08/08 02:58:37;;;;;;;3.80;3.50;;;12.00;99.90;;;;;;5027967;28;20064;-62
2022/08/08 03:01:22;;;;;;;6.20;4.03;;;12.00;99.90;;;;;;5012168;28;20033;-60
2022/08/08 03:04:03;;;;;;;4.68;4.20;;;12.00;99.90;;;;;;5021826;28;20026;-60
2022/08/08 03:07:17;;;;;;;5.10;4.18;;;11.90;99.90;;;;;;5025331;28;20263;-62
2022/08/08 03:10:34;;;;;;;5.07;4.15;;;12.00;99.90;;;;;;5028549;28;20455;-61
2022/08/08 03:13:20;;;;;;;5.20;4.35;;;11.90;99.90;;;;;;4992371;28;20068;-61
2022/08/08 03:16:21;;;;;;;4.90;4.40;;;11.90;99.90;;;;;;5026804;28;20025;-60
2022/08/08 03:18:52;;;;;;;4.80;4.10;;;11.90;99.90;;;;;;5029048;28;20022;-60
2022/08/08 03:21:18;;;;;;;5.50;4.25;;;11.90;99.90;;;;;;5021409;28;20021;-61
2022/08/08 03:23:44;;;;;;;3.95;3.55;;;11.90;99.90;;;;;;5028598;28;20025;-62
2022/08/08 03:26:11;;;;;;;4.05;3.65;;;11.90;99.90;;;;;;5030285;28;20025;-60
2022/08/08 03:28:42;;;;;;;5.22;4.03;;;11.90;99.90;;;;;;5029159;28;20476;-61
2022/08/08 03:33:53;;;;;;;4.85;4.07;;;11.90;99.90;;;;;;5029943;28;20129;-61
2022/08/08 03:36:19;;;;;;;4.72;3.60;;;12.00;99.90;;;;;;5030636;28;20503;-59
2022/08/08 03:38:49;;;;;;;4.50;4.10;;;12.00;99.90;;;;;;5030423;28;20037;-60
2022/08/08 03:41:15;;;;;;;4.03;3.53;;;12.00;99.90;;;;;;5003464;28;20025;-60
2022/08/08 03:43:41;;;;;;;4.75;3.88;;;12.10;99.90;;;;;;5029660;28;20459;-62
2022/08/08 03:46:07;;;;;;;4.68;4.28;;;12.10;99.90;;;;;;5029950;28;20032;-60
2022/08/08 03:48:33;;;;;;;3.88;3.58;;;12.10;99.90;;;;;;5029629;28;20021;-59
2022/08/08 03:50:58;;;;;;;4.25;3.80;;;12.10;99.90;;;;;;5029938;28;20029;-56
2022/08/08 03:53:24;;;;;;;4.20;3.80;;;12.10;99.90;;;;;;5029190;28;20515;-62
2022/08/08 03:55:50;;;;;;;5.78;4.07;;;12.10;99.90;;;;;;5029163;28;20549;-60
2022/08/08 03:58:23;;;;;;;4.18;3.78;;;12.10;99.90;;;;;;5028689;28;20073;-61
2022/08/08 04:00:55;;;;;;;4.32;3.92;;;12.20;99.90;;;;;;5011080;28;20055;-63
2022/08/08 04:03:22;;;;;;;4.75;4.22;;;12.20;99.90;;;;;;5025595;28;20029;-61
2022/08/08 04:05:48;;;;;;;4.65;3.85;;;12.20;99.90;;;;;;5022293;28;20495;-61
2022/08/08 04:08:19;;;;;;;4.90;4.15;;;12.20;99.90;;;;;;5007495;28;20087;-60
2022/08/08 04:10:50;;;;;;;4.38;4.05;;;12.20;99.90;;;;;;5028583;28;20029;-62
2022/08/08 04:13:19;;;;;;;4.38;3.90;;;12.20;99.90;;;;;;5024123;28;20427;-62
2022/08/08 04:15:45;;;;;;;6.18;4.13;;;12.20;99.90;;;;;;5011519;28;20037;-57
2022/08/08 04:18:10;;;;;;;5.25;4.03;;;12.30;99.90;;;;;;5028936;28;20102;-61
2022/08/08 04:20:36;;;;;;;5.47;4.40;;;12.30;99.90;;;;;;5003223;28;20021;-61
2022/08/08 04:23:03;;;;;;;4.53;4.13;;;12.30;99.90;;;;;;5027108;28;20088;-62
2022/08/08 04:25:29;;;;;;;5.90;4.38;;;12.30;99.90;;;;;;5020397;28;20063;-61
2022/08/08 04:27:55;;;;;;;4.97;4.35;;;12.30;99.90;;;;;;5011024;28;20018;-59
2022/08/08 04:30:20;;;;;;;4.05;3.72;;;12.40;99.90;;;;;;5028734;28;20038;-61
2022/08/08 04:32:47;;;;;;;4.25;3.85;;;12.40;99.90;;;;;;5027936;28;20029;-60
2022/08/08 04:35:12;;;;;;;3.88;3.47;;;12.40;99.90;;;;;;5018011;28;20216;-57
2022/08/08 04:37:38;;;;;;;4.40;4.00;;;12.50;99.90;;;;;;5028763;28;20047;-61
2022/08/08 04:40:04;;;;;;;3.90;3.50;;;12.50;99.90;;;;;;5019799;28;20045;-61
2022/08/08 04:42:32;;;;;;;4.40;3.97;;;12.50;99.90;;;;;;5028031;28;20021;-61
2022/08/08 04:44:59;;;;;;;4.60;4.03;;;12.60;99.90;;;;;;5027695;28;20032;-62
2022/08/08 04:47:24;;;;;;;4.60;3.38;;;12.60;99.90;;;;;;5027654;28;20040;-62
2022/08/08 04:49:50;;;;;;;4.35;3.83;;;12.70;99.90;;;;;;5029029;28;20033;-63
2022/08/08 04:52:16;;;;;;;4.82;3.80;;;12.70;99.90;;;;;;5028025;28;20112;-63
2022/08/08 04:54:41;;;;;;;4.53;4.13;;;12.80;99.90;;;;;;5028722;28;20075;-62
2022/08/08 04:57:07;;;;;;;5.22;4.60;;;12.90;99.90;;;;;;5028827;28;20037;-60
2022/08/08 04:59:33;;;;;;;5.80;4.10;;;12.90;99.90;;;;;;5028270;28;20034;-62
2022/08/08 05:01:58;;;;;;;4.68;4.20;;;13.00;99.90;;;;;;5027651;28;20021;-62
2022/08/08 05:04:24;;;;;;;5.38;3.72;;;13.10;99.90;;;;;;5027811;28;20029;-60
2022/08/08 05:06:50;;;;;;;5.40;4.15;;;13.20;99.90;;;;;;5028598;28;20021;-62
2022/08/08 05:09:16;;;;;;;6.43;4.22;;;13.30;99.90;;;;;;5028163;28;20104;-63
2022/08/08 05:11:41;;;;;;;4.57;4.13;;;13.30;99.90;;;;;;5027898;28;20013;-62
2022/08/08 05:14:08;;;;;;;5.00;4.45;;;13.40;99.90;;;;;;5028656;28;20102;-62
2022/08/08 05:16:33;;;;;;;5.30;3.97;;;13.50;99.90;;;;;;5027863;28;20484;-62
2022/08/08 05:18:59;;;;;;;4.75;3.92;;;13.60;99.90;;;;;;5024251;28;20030;-63
2022/08/08 05:21:24;;;;;;;8.05;3.85;;;13.60;99.90;;;;;;5021574;28;20390;-60
2022/08/08 05:23:52;;;;;;;4.35;3.50;;;13.70;99.90;;;;;;5024782;28;20030;-62
2022/08/08 05:26:18;;;;;;;4.88;3.53;;;13.70;99.90;;;;;;5020885;28;20033;-62
2022/08/08 05:28:43;;;;;;;3.60;3.30;;;13.80;99.90;;;;;;5028562;28;20053;-63
2022/08/08 05:31:10;;;;;;;5.28;3.75;;;13.90;99.90;;;;;;5009881;28;20064;-63
2022/08/08 05:33:36;;;;;;;3.65;3.35;;;14.00;99.90;;;;;;5026616;28;20099;-62
2022/08/08 05:36:03;;;;;;;3.90;3.45;;;14.00;99.90;;;;;;5025831;28;20033;-63
2022/08/08 05:38:33;;;;;;;3.83;3.50;;;14.00;99.90;;;;;;5026641;28;20021;-63
2022/08/08 05:41:03;;;;;;;3.95;3.30;;;14.10;99.90;;;;;;5010258;28;20083;-62
2022/08/08 05:43:31;;;;;;;4.57;3.25;;;14.10;99.90;;;;;;5009783;28;20084;-62
2022/08/08 05:45:59;;;;;;;4.38;3.83;;;14.10;99.90;;;;;;5026318;28;20502;-62
2022/08/08 05:48:25;;;;;;;3.92;3.30;;;14.10;99.90;;;;;;5027875;28;20022;-61
2022/08/08 05:50:51;;;;;;;4.28;3.17;;;14.10;99.90;;;;;;5027559;28;20554;-62
2022/08/08 05:53:24;;;;;;;3.80;2.88;;;14.10;99.90;;;;;;5027617;28;20029;-63
2022/08/08 05:55:51;;;;;;;3.95;3.28;;;14.20;99.90;;;;;;5028611;28;20053;-62
2022/08/08 05:58:18;;;;;;;4.50;2.63;;;14.10;99.90;;;;;;5032374;28;20049;-60
2022/08/08 06:00:46;;;;;;;4.60;3.08;;;14.20;99.90;;;;;;5025663;28;20033;-62
2022/08/08 06:03:15;;;;;;;3.63;3.00;;;14.20;99.90;;;;;;5030033;28;20619;-62
2022/08/08 06:05:53;;;;;;;6.78;3.33;;;14.30;99.90;;;;;;5032312;28;20071;-61
2022/08/08 06:08:33;;;;;;;3.35;2.78;;;14.40;99.90;;;;;;5026337;28;20029;-63
2022/08/08 06:10:59;;;;;;;5.88;3.10;;;14.50;99.90;;;;;;5031755;28;20044;-62
2022/08/08 06:13:27;;;;;;;3.17;2.88;;;14.60;99.90;;;;;;5031521;28;20555;-61
2022/08/08 06:15:54;;;;;;;4.88;3.22;;;14.70;99.90;;;;;;5031022;28;20029;-63
2022/08/08 06:18:23;;;;;;;2.72;2.42;;;14.80;99.90;;;;;;5031632;28;20108;-63
2022/08/08 06:20:55;;;;;;;5.20;2.67;;;14.90;99.90;;;;;;5032033;28;20018;-64
2022/08/08 06:23:21;;;;;;;4.32;2.55;;;15.00;99.90;;;;;;5030264;28;20113;-62
2022/08/08 06:26:00;;;;;;;4.82;2.65;;;15.10;99.90;;;;;;5031836;28;20031;-62
2022/08/08 06:28:43;;;;;;;6.03;2.42;;;15.20;99.90;;;;;;5025646;28;20021;-63
2022/08/08 06:31:11;;;;;;;5.15;2.50;;;15.40;99.90;;;;;;5029860;28;20025;-65
2022/08/08 06:33:47;;;;;;;3.08;2.72;;;15.50;99.90;;;;;;5030148;28;20044;-63
2022/08/08 06:36:20;;;;;;;4.20;2.75;;;15.70;99.90;;;;;;5031666;28;20052;-64
2022/08/08 06:38:49;;;;;;;3.72;2.22;;;15.90;99.90;;;;;;5031049;28;20064;-63
2022/08/08 06:41:16;;;;;;;2.97;2.78;;;16.10;99.90;;;;;;5022947;28;20069;-62
2022/08/08 06:43:44;;;;;;;5.65;3.47;;;16.40;99.90;;;;;;5031361;28;20044;-63
2022/08/08 06:46:10;;;;;;;2.90;2.65;;;16.50;99.90;;;;;;5030621;28;20279;-64
2022/08/08 06:48:35;;;;;;;6.72;3.25;;;16.70;99.90;;;;;;5031497;28;20037;-64
2022/08/08 06:51:03;;;;;;;4.72;3.33;;;16.80;99.90;;;;;;5031009;28;20123;-63
2022/08/08 06:53:29;;;;;;;3.65;3.05;;;16.90;99.90;;;;;;5024072;28;20446;-64
2022/08/08 06:55:56;;;;;;;3.45;3.15;;;17.00;99.90;;;;;;5031114;28;20029;-63
2022/08/08 06:58:22;;;;;;;6.57;4.18;;;17.20;99.90;;;;;;5013137;28;20030;-64
2022/08/08 07:00:49;;;;;;;3.72;3.20;;;17.30;99.90;;;;;;5030602;28;20505;-63
2022/08/08 07:03:46;;;;;;;4.40;3.42;;;17.50;99.90;;;;;;5025766;28;20132;-63
2022/08/08 07:06:15;;;;;;;3.95;3.42;;;17.60;99.90;;;;;;5030579;28;20538;-63
2022/08/08 07:08:45;;;;;;;4.20;3.08;;;17.70;99.90;;;;;;5029467;28;20083;-63
2022/08/08 07:11:19;;;;;;;5.43;4.00;;;17.80;99.90;;;;;;5030478;28;20453;-61
2022/08/08 07:13:45;;;;;;;4.82;3.47;;;17.90;99.90;;;;;;5030434;28;20116;-63
2022/08/08 07:16:26;;;;;;;3.60;3.25;;;18.00;99.90;;;;;;5012986;28;20547;-62
2022/08/08 07:19:17;;;;;;;6.90;3.92;;;18.00;99.90;;;;;;5030821;28;20060;-62
2022/08/08 07:21:56;;;;;;;4.07;3.75;;;18.10;99.90;;;;;;5029779;28;20037;-63
2022/08/08 07:24:29;;;;;;;5.57;4.10;;;18.30;99.90;;;;;;5023730;28;20029;-63
2022/08/08 07:26:57;;;;;;;5.57;3.83;;;18.50;99.90;;;;;;5030494;28;20021;-62
2022/08/08 07:29:23;;;;;;;4.82;3.65;;;18.70;99.90;;;;;;5031025;28;20048;-64
2022/08/08 07:31:49;;;;;;;3.90;3.20;;;18.90;99.90;;;;;;5029844;28;20021;-65
2022/08/08 07:34:16;;;;;;;4.72;3.58;;;19.20;99.90;;;;;;5029298;28;20044;-64
2022/08/08 07:36:42;;;;;;;3.47;3.17;;;19.40;99.90;;;;;;5030241;28;20104;-63
2022/08/08 07:39:08;;;;;;;4.82;3.00;;;19.50;99.90;;;;;;5030216;28;20117;-64
2022/08/08 07:41:40;;;;;;;2.90;2.53;;;19.80;99.90;;;;;;5029530;28;20041;-64
2022/08/08 07:44:07;;;;;;;3.40;2.80;;;20.00;99.90;;;;;;5029773;28;20100;-63
2022/08/08 07:46:33;;;;;;;3.75;2.95;;;20.30;99.90;;;;;;5030284;28;20017;-63
2022/08/08 07:48:58;;;;;;;4.85;3.28;;;20.50;99.90;;;;;;5012381;28;20033;-63
2022/08/08 07:51:25;;;;;;;2.50;2.30;;;20.60;99.90;;;;;;5028882;28;20021;-63
2022/08/08 07:54:15;;;;;;;7.40;2.58;;;20.60;99.90;;;;;;5029935;28;20033;-64
2022/08/08 07:57:25;;;;;;;3.70;2.78;;;20.70;99.90;;;;;;5030286;28;20029;-62
2022/08/08 08:00:10;;;;;;;1.83;1.73;;;20.70;99.90;;;;;;5005077;28;20581;-63
2022/08/08 08:02:55;;;;;;;3.65;2.10;;;20.70;99.90;;;;;;5029091;28;20443;-63
2022/08/08 08:05:26;;;;;;;3.67;2.72;;;20.80;99.90;;;;;;5022443;28;20026;-62
2022/08/08 08:08:02;;;;;;;4.15;2.53;;;20.70;99.90;;;;;;5029168;28;20061;-63
2022/08/08 08:10:29;;;;;;;2.50;2.30;;;20.60;99.90;;;;;;5023649;28;20482;-60
2022/08/08 08:13:21;;;;;;;3.10;2.83;;;20.60;99.90;;;;;;5028681;28;20029;-63
2022/08/08 08:16:05;;;;;;;2.55;1.98;;;20.60;99.90;;;;;;5025984;28;20523;-63
2022/08/08 08:18:40;;;;;;;2.35;1.67;;;20.60;99.90;;;;;;5025905;28;20036;-61
2022/08/08 08:21:07;;;;;;;2.85;2.03;;;20.60;99.90;;;;;;5028978;28;20067;-63
2022/08/08 08:23:33;;;;;;;3.55;1.88;;;20.70;99.90;;;;;;5010754;28;20036;-64
2022/08/08 08:25:58;;;;;;;7.28;1.88;;;20.80;99.90;;;;;;5029546;28;20436;-61
2022/08/08 08:28:24;;;;;;;3.00;2.20;;;20.80;99.90;;;;;;5029028;28;20028;-62
2022/08/08 08:30:54;;;;;;;5.30;2.15;;;20.80;99.90;;;;;;5029072;28;20492;-63
2022/08/08 08:33:20;;;;;;;4.20;2.20;;;20.80;99.90;;;;;;5027179;28;20041;-62
2022/08/08 08:35:47;;;;;;;5.15;1.80;;;20.80;99.90;;;;;;5028287;28;20025;-62
2022/08/08 08:38:12;;;;;;;2.42;2.17;;;20.80;99.90;;;;;;5028857;28;20039;-62
2022/08/08 08:40:38;;;;;;;4.28;1.98;;;20.90;99.90;;;;;;5029050;28;20037;-61
2022/08/08 08:43:04;;;;;;;2.03;1.80;;;20.80;99.90;;;;;;5009923;28;20036;-63
2022/08/08 08:45:30;;;;;;;3.25;1.80;;;20.70;99.90;;;;;;5028862;28;20025;-61
2022/08/08 08:47:56;;;;;;;3.03;1.30;;;20.60;99.90;;;;;;5028085;28;20451;-60
2022/08/08 08:50:24;;;;;;;2.60;1.20;;;20.60;99.90;;;;;;5028461;28;20029;-62
2022/08/08 08:52:52;;;;;;;2.97;1.50;;;20.70;99.90;;;;;;5027844;28;20147;-62
2022/08/08 08:55:19;;;;;;;2.95;1.70;;;20.70;99.90;;;;;;5028910;28;20044;-62
2022/08/08 08:57:47;;;;;;;2.58;1.27;;;20.70;99.90;;;;;;5027174;28;20079;-61
2022/08/08 09:00:13;;;;;;;2.03;1.48;;;20.80;99.90;;;;;;5028765;28;20492;-61
2022/08/08 09:02:41;;;;;;;2.35;1.38;;;20.70;99.90;;;;;;5027793;28;20039;-60
2022/08/08 09:05:07;;;;;;;3.92;1.67;;;20.70;99.50;;;;;;5028063;28;20021;-60
2022/08/08 09:07:34;;;;;;;5.22;1.58;;;20.60;99.80;;;;;;5028841;28;20462;-59
2022/08/08 09:10:00;;;;;;;3.45;1.40;;;20.70;99.90;;;;;;5028095;28;20021;-63
2022/08/08 09:12:27;;;;;;;4.07;1.35;;;20.80;99.60;;;;;;5027905;28;20029;-62
2022/08/08 09:14:56;;;;;;;3.08;1.73;;;20.80;99.90;;;;;;5028810;28;20034;-55
2022/08/08 09:17:25;;;;;;;1.20;0.85;;;20.80;99.50;;;;;;5028839;28;20109;-61
2022/08/08 09:19:55;;;;;;;3.65;1.17;;;20.60;99.90;;;;;;5028189;28;20100;-61
2022/08/08 09:22:21;;;;;;;2.83;1.15;;;20.80;99.90;;;;;;5020287;28;20053;-62
2022/08/08 09:24:52;;;;;;;1.27;0.98;;;20.90;99.90;;;;;;5028607;28;20022;-61
2022/08/08 09:27:18;;;;;;;3.20;1.08;;;21.00;99.90;;;;;;5028872;28;20049;-63
2022/08/08 09:29:47;;;;;;;3.03;1.55;;;21.10;99.20;;;;;;5031169;28;20022;-62
2022/08/08 09:32:17;;;;;;;3.05;1.02;;;21.00;99.80;;;;;;5013197;28;20041;-62
2022/08/08 09:34:48;;;;;;;2.15;0.80;;;21.10;98.70;;;;;;5025976;28;20400;-63
2022/08/08 09:37:18;;;;;;;5.05;1.38;;;21.10;96.90;;;;;;5027293;28;20124;-61
2022/08/08 09:39:54;;;;;;;1.50;0.85;;;21.30;98.20;;;;;;5032225;28;20037;-60
2022/08/08 09:42:22;;;;;;;1.17;0.70;;;21.40;98.40;;;;;;5027446;28;20026;-61
2022/08/08 09:45:19;;;;;;;2.63;1.10;;;21.30;98.00;;;;;;5031178;28;20025;-60
2022/08/08 09:47:46;;;;;;;2.33;1.25;;;21.20;97.90;;;;;;5028466;28;20033;-61
2022/08/08 09:50:16;;;;;;;3.80;1.33;;;21.40;96.50;;;;;;5028012;28;20121;-62
2022/08/08 09:52:49;;;;;;;1.38;1.02;;;21.50;97.70;;;;;;5026985;28;20032;-62
2022/08/08 09:55:15;;;;;;;2.33;1.15;;;21.70;97.90;;;;;;5006497;28;20033;-60
2022/08/08 09:57:45;;;;;;;3.63;1.20;;;21.90;98.30;;;;;;5031678;28;20049;-62
2022/08/08 10:00:14;;;;;;;3.35;0.98;;;22.00;98.00;;;;;;5032010;28;20112;-59
2022/08/08 10:02:41;;;;;;;1.50;0.98;;;22.00;97.70;;;;;;5031203;28;20094;-59
2022/08/08 10:05:08;;;;;;;3.05;1.10;;;22.10;98.10;;;;;;5031444;28;20051;-62
2022/08/08 10:07:35;;;;;;;0.77;0.77;;;22.10;98.20;;;;;;5032303;28;20033;-62
2022/08/08 10:10:00;;;;;;;2.17;1.08;;;22.20;98.40;;;;;;5031615;28;20045;-63
2022/08/08 10:12:34;;;;;;;1.45;1.00;;;22.40;96.90;;;;;;5030950;28;20123;-63
2022/08/08 10:15:01;;;;;;;2.22;0.82;;;22.40;96.60;;;;;;5031884;28;20064;-63
2022/08/08 10:17:29;;;;;;;2.42;0.82;;;22.50;97.80;;;;;;5032818;28;20395;-63
2022/08/08 10:20:00;;;;;;;4.60;1.40;;;22.50;98.40;;;;;;5031964;28;20034;-63
2022/08/08 10:22:32;;;;;;;3.15;1.50;;;22.60;97.90;;;;;;5023254;28;20052;-62
2022/08/08 10:25:03;;;;;;;1.45;1.20;;;22.60;97.90;;;;;;5032252;28;20797;-61
2022/08/08 10:27:38;;;;;;;3.70;1.20;;;22.80;97.70;;;;;;5025984;28;20021;-63
2022/08/08 10:30:05;;;;;;;2.00;1.08;;;22.80;97.60;;;;;;5031667;28;20091;-61
2022/08/08 10:32:34;;;;;;;2.55;1.33;;;22.80;97.60;;;;;;5030748;28;20372;-62
2022/08/08 10:35:03;;;;;;;3.63;1.30;;;22.80;97.60;;;;;;5031181;28;20029;-62
2022/08/08 10:37:30;;;;;;;2.92;1.00;;;22.80;96.80;;;;;;5031118;28;20025;-60
2022/08/08 10:39:59;;;;;;;2.28;0.80;;;22.70;96.80;;;;;;5031421;28;20364;-62
2022/08/08 10:42:34;;;;;;;1.80;1.08;;;22.70;96.90;;;;;;5030256;28;20023;-59
2022/08/08 10:45:06;;;;;;;2.78;1.30;;;22.60;97.30;;;;;;5031189;28;20013;-61
2022/08/08 10:47:32;;;;;;;1.15;0.82;;;22.50;96.30;;;;;;5013626;28;20117;-61
2022/08/08 10:49:59;;;;;;;4.57;1.33;;;22.10;96.90;;;;;;5030648;28;20155;-62
2022/08/08 10:52:33;;;;;;;4.88;1.30;;;22.00;96.60;;;;;;5028572;28;20053;-62
2022/08/08 10:55:05;;;;;;;2.40;1.38;;;22.10;97.50;;;;;;5030645;28;20030;-61
2022/08/08 10:57:46;;;;;;;3.40;1.10;;;22.30;97.60;;;;;;5030522;28;20037;-58
2022/08/08 11:00:14;;;;;;;1.85;0.93;;;22.50;96.70;;;;;;5030909;28;20408;-58
2022/08/08 11:02:39;;;;;;;3.38;0.88;;;22.50;95.10;;;;;;5030041;28;20030;-62
2022/08/08 11:05:08;;;;;;;2.67;0.70;;;22.40;96.00;;;;;;5030368;28;20499;-62
2022/08/08 11:07:36;;;;;;;1.58;1.02;;;22.50;96.20;;;;;;5030986;28;20029;-63
2022/08/08 11:10:04;;;;;;;2.47;1.05;;;22.60;95.20;;;;;;5030799;28;20440;-63
2022/08/08 11:12:34;;;;;;;3.83;1.10;;;22.80;96.20;;;;;;5029494;28;20030;-62
2022/08/08 11:15:00;;;;;;;2.30;0.88;;;22.90;94.20;;;;;;5030288;28;20488;-62
2022/08/08 11:17:29;;;;;;;2.45;0.93;;;22.80;94.80;;;;;;5030749;28;20047;-61
2022/08/08 11:19:54;;;;;;;3.47;1.00;;;22.70;95.10;;;;;;5028736;28;20021;-59
2022/08/08 11:22:24;;;;;;;1.33;1.10;;;22.80;93.20;;;;;;5011591;28;20036;-62
2022/08/08 11:24:52;;;;;;;3.42;1.75;;;22.80;94.00;;;;;;5030081;28;20100;-59
2022/08/08 11:27:19;;;;;;;1.85;0.80;;;22.90;94.20;;;;;;5029655;28;20028;-63
2022/08/08 11:29:47;;;;;;;1.73;1.05;;;23.10;93.80;;;;;;5030105;28;20036;-62
2022/08/08 11:32:14;;;;;;;4.57;1.20;;;23.00;94.30;;;;;;5029465;28;20499;-62
2022/08/08 11:34:41;;;;;;;3.20;0.80;;;23.10;94.30;;;;;;5029696;28;20121;-60
2022/08/08 11:37:08;;;;;;;3.25;1.27;;;23.10;93.60;;;;;;5025993;28;20029;-62
2022/08/08 11:39:36;;;;;;;5.05;1.80;;;23.00;94.20;;;;;;5030413;28;20377;-59
2022/08/08 11:42:02;;;;;;;3.42;1.48;;;23.00;92.80;;;;;;5024267;28;20029;-62
2022/08/08 11:44:28;;;;;;;2.10;0.75;;;23.10;93.80;;;;;;5023260;28;20025;-60
2022/08/08 11:46:56;;;;;;;1.27;0.80;;;23.20;93.00;;;;;;5030341;28;20556;-63
2022/08/08 11:49:23;;;;;;;2.33;1.50;;;23.30;93.50;;;;;;5028178;28;20036;-61
2022/08/08 11:51:51;;;;;;;1.23;1.10;;;23.50;93.20;;;;;;5027913;28;20340;-63
2022/08/08 11:54:17;;;;;;;2.63;1.00;;;23.50;92.40;;;;;;5029697;28;20025;-60
2022/08/08 11:56:42;;;;;;;0.90;0.80;;;23.60;92.40;;;;;;5010941;28;20029;-59
2022/08/08 11:59:10;;;;;;;1.58;0.85;;;23.60;92.60;;;;;;5028800;28;20013;-61
2022/08/08 12:01:37;;;;;;;1.50;1.13;;;23.30;93.40;;;;;;5029120;28;20024;-61
2022/08/08 12:04:04;;;;;;;1.45;0.52;;;23.40;94.00;;;;;;5029156;28;20025;-59
2022/08/08 12:06:31;;;;;;;0.73;0.73;;;23.50;93.40;;;;;;5011709;28;20025;-64
2022/08/08 12:09:07;;;;;;;2.97;1.08;;;23.30;93.60;;;;;;5011207;28;21622;-62
2022/08/08 12:11:41;;;;;;;0.88;0.68;;;23.50;93.40;;;;;;5009877;28;20029;-61
2022/08/08 12:14:06;;;;;;;1.90;0.80;;;23.50;93.00;;;;;;5029696;28;20033;-61
2022/08/08 12:16:32;;;;;;;0.80;0.75;;;23.70;93.80;;;;;;5029303;28;20549;-64
2022/08/08 12:19:00;;;;;;;0.60;0.60;;;23.80;93.50;;;;;;5020936;28;20017;-63
2022/08/08 12:21:31;;;;;;;4.63;1.30;;;23.90;93.20;;;;;;5027676;28;20104;-60
2022/08/08 12:24:08;;;;;;;1.15;1.05;;;23.90;93.20;;;;;;5028948;28;20018;-64
2022/08/08 12:26:38;;;;;;;2.78;0.90;;;24.10;92.90;;;;;;5028024;28;20033;-61
2022/08/08 12:29:22;;;;;;;1.35;1.08;;;24.20;92.70;;;;;;5028806;28;20028;-61
2022/08/08 12:32:00;;;;;;;1.85;1.05;;;24.30;93.60;;;;;;5028006;28;20113;-64
2022/08/08 12:34:40;;;;;;;1.52;0.88;;;24.20;92.40;;;;;;5020772;28;20022;-61
2022/08/08 12:37:09;;;;;;;2.30;1.23;;;24.10;93.20;;;;;;5027786;28;20033;-60
2022/08/08 12:39:35;;;;;;;3.63;1.08;;;24.00;92.90;;;;;;5027301;28;20491;-60
2022/08/08 12:42:01;;;;;;;1.10;0.80;;;23.80;93.30;;;;;;5028156;28;20104;-60
2022/08/08 12:44:28;;;;;;;1.95;0.93;;;23.50;94.10;;;;;;5028504;28;20024;-63
2022/08/08 12:46:55;;;;;;;2.38;0.88;;;23.50;94.00;;;;;;5028326;28;20617;-62
2022/08/08 12:49:29;;;;;;;2.03;0.95;;;23.30;92.60;;;;;;5000903;28;20029;-58
2022/08/08 12:51:56;;;;;;;0.80;0.80;;;23.20;94.20;;;;;;5028067;28;20021;-61
2022/08/08 12:54:24;;;;;;;1.25;0.90;;;23.10;93.70;;;;;;5028623;28;20017;-59
2022/08/08 12:56:50;;;;;;;3.30;0.95;;;23.10;93.60;;;;;;5020848;28;20092;-59
2022/08/08 12:59:22;;;;;;;0.88;0.70;;;23.00;93.20;;;;;;5028573;28;20072;-60
2022/08/08 13:01:58;;;;;;;1.20;1.10;;;22.90;93.10;;;;;;5026708;28;20025;-61
2022/08/08 13:04:31;;;;;;;3.13;1.30;;;22.90;94.10;;;;;;5027093;28;20504;-60
2022/08/08 13:07:08;;;;;;;4.20;1.42;;;23.00;95.40;;;;;;5028362;28;20049;-60
2022/08/08 13:09:44;;;;;;;2.47;1.40;;;23.00;95.30;;;;;;5008811;28;20377;-61
2022/08/08 13:12:34;;;;;;;1.83;1.00;;;23.00;95.50;;;;;;5009963;28;20084;-61
2022/08/08 13:15:06;;;;;;;4.88;1.17;;;23.00;95.20;;;;;;5028557;28;20037;-61
2022/08/08 13:17:33;;;;;;;2.22;1.25;;;23.00;95.20;;;;;;5027377;28;20103;-60
2022/08/08 13:19:59;;;;;;;5.40;1.67;;;23.00;95.10;;;;;;5028244;28;20061;-59
2022/08/08 13:22:24;;;;;;;4.10;1.25;;;22.90;94.70;;;;;;5027529;28;20064;-60